Time;durP1;ratioP1;P1;durP2;ratioP2;P2;SDS_P1;SDS_P2;PMS_P1;PMS_P2;Temp;Humidity;BMP_temperature;BMP_pressure;BME280_temperature;BME280_humidity;BME280_pressure;Samples;Min_cycle;Max_cycle;Signal;HPM_P1;HPM_P2
2021/09/25 00:00:02;;;;;;;41.13;24.65;;;17.50;99.90;;;;;;5014791;28;20014;-75
2021/09/25 00:02:27;;;;;;;39.58;24.42;;;17.50;99.90;;;;;;5014499;28;20034;-75
2021/09/25 00:04:53;;;;;;;38.08;23.67;;;17.50;99.90;;;;;;5014554;28;20494;-75
2021/09/25 00:07:19;;;;;;;37.35;24.17;;;17.60;99.90;;;;;;5015002;28;20026;-75
2021/09/25 00:09:45;;;;;;;35.85;23.25;;;17.60;99.90;;;;;;5013914;28;20029;-75
2021/09/25 00:12:13;;;;;;;37.72;23.45;;;17.60;99.90;;;;;;5014635;28;20018;-75
2021/09/25 00:14:40;;;;;;;40.13;24.92;;;17.60;99.90;;;;;;5014879;28;20076;-75
2021/09/25 00:17:07;;;;;;;38.55;24.58;;;17.60;99.90;;;;;;5015628;28;20040;-76
2021/09/25 00:19:34;;;;;;;36.03;24.33;;;17.60;99.90;;;;;;5015687;28;20028;-75
2021/09/25 00:22:00;;;;;;;40.72;26.15;;;17.60;99.90;;;;;;5015625;28;20112;-75
2021/09/25 00:24:26;;;;;;;40.97;25.50;;;17.50;99.90;;;;;;5015452;28;20033;-75
2021/09/25 00:26:52;;;;;;;42.88;24.88;;;17.50;99.90;;;;;;5015692;28;20084;-75
2021/09/25 00:29:18;;;;;;;37.67;24.50;;;17.50;99.90;;;;;;5015644;28;20022;-75
2021/09/25 00:31:44;;;;;;;38.45;24.92;;;17.50;99.90;;;;;;5015554;28;20105;-75
2021/09/25 00:34:10;;;;;;;38.85;24.83;;;17.50;99.90;;;;;;5014101;28;20029;-75
2021/09/25 00:36:36;;;;;;;41.70;25.63;;;17.50;99.90;;;;;;5015446;28;20033;-75
2021/09/25 00:39:02;;;;;;;46.05;25.15;;;17.50;99.90;;;;;;5013972;28;20038;-75
2021/09/25 00:41:28;;;;;;;44.28;26.05;;;17.50;99.90;;;;;;5015345;28;20472;-76
2021/09/25 00:43:54;;;;;;;44.17;26.13;;;17.60;99.90;;;;;;5015188;28;20029;-75
2021/09/25 00:46:21;;;;;;;45.88;26.33;;;17.60;99.90;;;;;;5014041;28;20026;-75
2021/09/25 00:48:47;;;;;;;41.80;26.55;;;17.60;99.90;;;;;;5015288;28;20100;-75
2021/09/25 00:51:13;;;;;;;45.08;26.83;;;17.60;99.90;;;;;;5015125;28;20092;-75
2021/09/25 00:53:39;;;;;;;38.50;25.10;;;17.60;99.90;;;;;;5013513;28;20496;-75
2021/09/25 00:56:08;;;;;;;44.20;25.73;;;17.60;99.90;;;;;;5014742;28;20022;-76
2021/09/25 00:58:35;;;;;;;38.90;24.63;;;17.60;99.90;;;;;;5014805;28;20022;-75
2021/09/25 01:01:00;;;;;;;40.55;25.67;;;17.50;99.90;;;;;;5014063;28;20172;-75
2021/09/25 01:03:26;;;;;;;41.55;24.95;;;17.50;99.90;;;;;;5014406;28;20070;-75
2021/09/25 01:05:52;;;;;;;41.45;26.48;;;17.50;99.90;;;;;;5014554;28;20024;-75
2021/09/25 01:08:22;;;;;;;43.33;26.70;;;17.60;99.90;;;;;;5014659;28;20026;-75
2021/09/25 01:10:49;;;;;;;45.22;26.38;;;17.60;99.90;;;;;;5014469;28;20018;-75
2021/09/25 01:13:15;;;;;;;43.55;25.85;;;17.60;99.90;;;;;;5014383;28;20037;-75
2021/09/25 01:15:41;;;;;;;41.70;25.13;;;17.70;99.90;;;;;;5013231;28;20542;-75
2021/09/25 01:18:07;;;;;;;41.42;26.77;;;17.70;99.90;;;;;;5013946;28;20025;-75
2021/09/25 01:20:33;;;;;;;39.25;26.17;;;17.70;99.90;;;;;;5013667;28;20491;-75
2021/09/25 01:22:59;;;;;;;46.65;26.52;;;17.70;99.90;;;;;;5013378;28;20388;-75
2021/09/25 01:25:25;;;;;;;39.50;25.08;;;17.70;99.90;;;;;;5012383;28;20373;-75
2021/09/25 01:27:52;;;;;;;40.25;25.75;;;17.70;99.90;;;;;;5013544;28;20664;-75
2021/09/25 01:30:18;;;;;;;42.40;25.30;;;17.80;99.90;;;;;;5013350;28;20032;-75
2021/09/25 01:32:46;;;;;;;42.35;25.70;;;17.80;99.90;;;;;;5013276;28;20025;-75
2021/09/25 01:35:13;;;;;;;41.72;25.60;;;17.80;99.90;;;;;;5013365;28;20028;-75
2021/09/25 01:37:40;;;;;;;38.25;24.55;;;17.80;99.90;;;;;;5011955;28;20032;-75
2021/09/25 01:40:07;;;;;;;40.22;24.63;;;17.80;99.90;;;;;;5011847;28;20413;-75
2021/09/25 01:42:34;;;;;;;37.83;24.33;;;17.80;99.90;;;;;;5011707;28;20030;-75
2021/09/25 01:44:59;;;;;;;42.72;25.25;;;17.90;99.90;;;;;;5012914;28;20029;-75
2021/09/25 01:47:25;;;;;;;40.28;23.65;;;17.80;99.90;;;;;;5012743;28;20380;-75
2021/09/25 01:49:51;;;;;;;39.35;23.50;;;17.90;99.90;;;;;;5011385;28;20025;-75
2021/09/25 01:52:18;;;;;;;35.55;23.05;;;17.90;99.90;;;;;;5010982;28;20040;-75
2021/09/25 01:54:45;;;;;;;42.10;25.15;;;17.90;99.90;;;;;;5012884;28;20388;-75
2021/09/25 01:57:11;;;;;;;43.95;24.52;;;17.90;99.90;;;;;;5012819;28;20034;-75
2021/09/25 01:59:37;;;;;;;39.53;24.05;;;17.90;99.90;;;;;;5012603;28;20472;-75
2021/09/25 02:02:03;;;;;;;44.92;25.50;;;17.90;99.90;;;;;;5012769;28;21098;-75
2021/09/25 02:04:28;;;;;;;37.08;23.02;;;17.90;99.90;;;;;;5012553;28;20033;-75
2021/09/25 02:06:54;;;;;;;37.72;24.60;;;17.80;99.90;;;;;;5012545;28;20026;-75
2021/09/25 02:09:20;;;;;;;35.58;23.45;;;17.90;99.90;;;;;;5012627;28;20399;-75
2021/09/25 02:11:46;;;;;;;40.42;24.60;;;17.80;99.90;;;;;;5012304;28;20022;-75
2021/09/25 02:14:11;;;;;;;39.70;24.55;;;17.80;99.90;;;;;;5011851;28;20030;-75
2021/09/25 02:16:37;;;;;;;37.75;23.73;;;17.80;99.90;;;;;;5012542;28;20026;-75
2021/09/25 02:19:03;;;;;;;36.67;23.52;;;17.80;99.90;;;;;;5012354;28;20646;-75
2021/09/25 02:21:29;;;;;;;37.05;23.15;;;17.80;99.90;;;;;;5012318;28;20048;-75
2021/09/25 02:23:55;;;;;;;38.83;23.88;;;17.90;99.90;;;;;;5011015;28;20395;-75
2021/09/25 02:26:21;;;;;;;35.13;21.85;;;17.90;99.90;;;;;;5012367;28;20536;-75
2021/09/25 02:28:47;;;;;;;36.60;23.45;;;17.90;99.90;;;;;;5012264;28;20060;-75
2021/09/25 02:31:12;;;;;;;38.03;23.15;;;17.90;99.90;;;;;;5012302;28;20113;-75
2021/09/25 02:33:38;;;;;;;35.33;21.38;;;17.90;99.90;;;;;;5012073;28;20472;-75
2021/09/25 02:36:04;;;;;;;38.60;23.88;;;17.90;99.90;;;;;;5010806;28;20026;-75
2021/09/25 02:38:30;;;;;;;39.20;23.70;;;17.90;99.90;;;;;;5012191;28;20030;-75
2021/09/25 02:40:56;;;;;;;36.13;23.08;;;17.90;99.90;;;;;;5012109;28;20026;-75
2021/09/25 02:43:22;;;;;;;36.03;21.90;;;18.00;99.90;;;;;;5011857;28;20472;-75
2021/09/25 02:45:48;;;;;;;34.70;22.70;;;18.00;99.90;;;;;;5012012;28;20030;-75
2021/09/25 02:48:14;;;;;;;37.20;21.75;;;18.00;99.90;;;;;;5012017;28;20109;-75
2021/09/25 02:50:40;;;;;;;34.38;21.67;;;18.00;99.90;;;;;;5011974;28;20026;-75
2021/09/25 02:53:06;;;;;;;35.30;21.60;;;18.00;99.90;;;;;;5011829;28;20077;-75
2021/09/25 02:55:31;;;;;;;34.78;21.73;;;18.00;99.90;;;;;;5011908;28;20447;-75
2021/09/25 02:57:57;;;;;;;35.33;21.60;;;18.00;99.90;;;;;;5010634;28;20026;-75
2021/09/25 03:00:23;;;;;;;34.03;22.38;;;18.00;99.90;;;;;;5011768;28;20032;-75
2021/09/25 03:02:49;;;;;;;33.15;22.38;;;18.10;99.90;;;;;;5010477;28;20030;-75
2021/09/25 03:05:15;;;;;;;35.25;22.92;;;18.10;99.90;;;;;;5011839;28;20485;-75
2021/09/25 03:07:41;;;;;;;35.53;23.02;;;18.10;99.90;;;;;;5011901;28;20097;-75
2021/09/25 03:10:08;;;;;;;34.58;20.88;;;18.10;99.90;;;;;;5011768;28;20018;-75
2021/09/25 03:12:34;;;;;;;34.95;22.27;;;18.10;99.90;;;;;;5010480;28;20022;-75
2021/09/25 03:15:01;;;;;;;38.67;22.75;;;18.10;99.90;;;;;;5011629;28;20377;-75
2021/09/25 03:17:26;;;;;;;30.70;20.92;;;18.10;99.90;;;;;;5011883;28;20495;-75
2021/09/25 03:19:52;;;;;;;32.50;20.63;;;18.10;99.90;;;;;;5011767;28;20014;-75
2021/09/25 03:22:18;;;;;;;34.85;20.63;;;18.10;99.90;;;;;;5011628;28;20467;-75
2021/09/25 03:24:44;;;;;;;33.75;21.58;;;18.10;99.90;;;;;;5013561;28;20040;-75
2021/09/25 03:27:10;;;;;;;40.90;21.83;;;18.10;99.90;;;;;;5015593;28;20096;-74
2021/09/25 03:29:36;;;;;;;34.92;22.15;;;18.10;99.90;;;;;;5015394;28;20104;-75
2021/09/25 03:32:03;;;;;;;35.05;22.73;;;18.10;99.90;;;;;;5015601;28;20072;-75
2021/09/25 03:34:29;;;;;;;34.33;21.17;;;18.10;99.90;;;;;;5015427;28;20030;-74
2021/09/25 03:36:54;;;;;;;35.60;21.75;;;18.10;99.90;;;;;;5015398;28;20052;-75
2021/09/25 03:39:20;;;;;;;41.47;23.42;;;18.10;99.90;;;;;;5015163;28;20476;-75
2021/09/25 03:41:46;;;;;;;38.63;21.75;;;18.10;99.90;;;;;;5015311;28;20089;-75
2021/09/25 03:44:12;;;;;;;33.70;20.40;;;18.10;99.90;;;;;;5015437;28;20033;-74
2021/09/25 03:46:38;;;;;;;34.75;22.48;;;18.10;99.90;;;;;;5017456;28;20105;-75
2021/09/25 03:49:04;;;;;;;31.23;21.38;;;18.10;99.90;;;;;;5015031;28;20025;-75
2021/09/25 03:51:30;;;;;;;39.97;23.80;;;18.10;99.90;;;;;;5015298;28;20497;-75
2021/09/25 03:53:56;;;;;;;33.50;20.73;;;18.20;99.90;;;;;;5015082;28;20130;-75
2021/09/25 03:56:23;;;;;;;31.25;20.35;;;18.20;99.90;;;;;;5015480;28;20220;-75
2021/09/25 03:58:49;;;;;;;34.67;21.17;;;18.20;99.90;;;;;;5014879;28;20502;-75
2021/09/25 04:01:15;;;;;;;30.92;21.00;;;18.20;99.90;;;;;;5013241;28;20443;-75
2021/09/25 04:03:41;;;;;;;32.85;21.60;;;18.20;99.90;;;;;;5014667;28;20030;-75
2021/09/25 04:06:07;;;;;;;37.17;21.90;;;18.30;99.90;;;;;;5013294;28;20026;-75
2021/09/25 04:08:33;;;;;;;34.40;21.15;;;18.30;99.90;;;;;;5014713;28;20029;-75
2021/09/25 04:11:00;;;;;;;36.35;21.92;;;18.30;99.90;;;;;;5013351;28;20018;-75
2021/09/25 04:13:25;;;;;;;38.13;21.65;;;18.20;99.90;;;;;;5014322;28;20057;-75
2021/09/25 04:15:51;;;;;;;36.20;21.20;;;18.30;99.90;;;;;;5014424;28;20054;-75
2021/09/25 04:18:17;;;;;;;35.33;20.80;;;18.30;99.90;;;;;;5014461;28;20432;-75
2021/09/25 04:20:43;;;;;;;33.45;21.27;;;18.30;99.90;;;;;;5014479;28;20026;-75
2021/09/25 04:23:09;;;;;;;32.55;20.20;;;18.30;99.90;;;;;;5014174;28;20037;-75
2021/09/25 04:25:34;;;;;;;31.30;19.35;;;18.30;99.90;;;;;;5014463;28;20076;-75
2021/09/25 04:28:05;;;;;;;30.45;20.02;;;18.30;99.90;;;;;;5014383;28;20476;-75
2021/09/25 04:30:36;;;;;;;30.33;19.73;;;18.30;99.90;;;;;;5013053;28;20037;-75
2021/09/25 04:33:03;;;;;;;35.40;19.95;;;18.30;99.90;;;;;;5014160;28;20061;-75
2021/09/25 04:35:29;;;;;;;34.13;19.88;;;18.30;99.90;;;;;;5013164;28;20038;-75
2021/09/25 04:37:56;;;;;;;33.35;20.60;;;18.30;99.90;;;;;;5014017;28;20022;-75
2021/09/25 04:40:25;;;;;;;31.60;19.38;;;18.30;99.90;;;;;;5014108;28;20022;-75
2021/09/25 04:42:51;;;;;;;32.50;20.17;;;18.30;99.90;;;;;;5013842;28;20018;-75
2021/09/25 04:45:17;;;;;;;35.83;20.23;;;18.30;99.90;;;;;;5013896;28;20029;-75
2021/09/25 04:47:44;;;;;;;32.83;19.20;;;18.30;99.90;;;;;;5014157;28;20484;-75
2021/09/25 04:50:12;;;;;;;30.85;20.23;;;18.30;99.90;;;;;;5013867;28;20025;-76
2021/09/25 04:52:38;;;;;;;28.75;19.23;;;18.30;99.90;;;;;;5011837;28;20193;-75
2021/09/25 04:55:04;;;;;;;29.63;18.55;;;18.20;99.90;;;;;;5013246;28;20113;-75
2021/09/25 04:57:31;;;;;;;30.77;18.83;;;18.20;99.90;;;;;;5013764;28;20022;-75
2021/09/25 04:59:57;;;;;;;35.97;19.83;;;18.20;99.90;;;;;;5013516;28;20099;-75
2021/09/25 05:02:23;;;;;;;27.75;18.00;;;18.20;99.90;;;;;;5013875;28;20069;-75
2021/09/25 05:04:49;;;;;;;28.70;18.48;;;18.20;99.90;;;;;;5013957;28;20076;-75
2021/09/25 05:07:14;;;;;;;27.80;17.33;;;18.20;99.90;;;;;;5012254;28;20036;-75
2021/09/25 05:09:40;;;;;;;26.02;18.20;;;18.20;99.90;;;;;;5013669;28;20028;-75
2021/09/25 05:12:06;;;;;;;30.30;18.80;;;18.20;99.90;;;;;;5013880;28;20030;-75
2021/09/25 05:14:33;;;;;;;28.02;16.85;;;18.20;99.90;;;;;;5013777;28;20488;-75
2021/09/25 05:17:00;;;;;;;28.02;17.98;;;18.20;99.90;;;;;;5013630;28;20442;-75
2021/09/25 05:19:26;;;;;;;26.00;16.90;;;18.20;99.90;;;;;;5013398;28;20507;-75
2021/09/25 05:21:52;;;;;;;27.60;16.83;;;18.20;99.90;;;;;;5013281;28;20028;-75
2021/09/25 05:24:19;;;;;;;25.63;17.42;;;18.20;99.90;;;;;;5013408;28;20033;-75
2021/09/25 05:26:49;;;;;;;25.10;16.50;;;18.20;99.90;;;;;;5014128;28;20087;-75
2021/09/25 05:29:16;;;;;;;27.20;16.17;;;18.20;99.90;;;;;;5015272;28;20100;-75
2021/09/25 05:31:45;;;;;;;26.75;16.58;;;18.30;99.90;;;;;;5011574;28;20472;-75
2021/09/25 05:34:11;;;;;;;28.90;17.10;;;18.30;99.90;;;;;;5009762;28;20084;-75
2021/09/25 05:36:37;;;;;;;27.83;17.30;;;18.30;99.90;;;;;;5011476;28;20079;-75
2021/09/25 05:39:04;;;;;;;28.17;17.17;;;18.30;99.90;;;;;;5013164;28;20026;-75
2021/09/25 05:41:32;;;;;;;26.55;16.63;;;18.30;99.90;;;;;;5011756;28;20041;-75
2021/09/25 05:43:57;;;;;;;27.05;17.35;;;18.30;99.90;;;;;;5011634;28;20091;-75
2021/09/25 05:46:23;;;;;;;26.50;16.67;;;18.30;99.90;;;;;;5011186;28;20109;-75
2021/09/25 05:48:51;;;;;;;31.20;18.05;;;18.30;99.90;;;;;;5012437;28;20060;-75
2021/09/25 05:51:19;;;;;;;28.55;17.67;;;18.30;99.90;;;;;;5012967;28;20380;-75
2021/09/25 05:53:45;;;;;;;27.85;17.23;;;18.30;99.90;;;;;;5012497;28;20038;-75
2021/09/25 05:56:11;;;;;;;25.90;18.25;;;18.40;99.90;;;;;;5012872;28;20041;-75
2021/09/25 05:58:36;;;;;;;29.33;17.80;;;18.40;99.90;;;;;;5012520;28;20048;-75
2021/09/25 06:01:02;;;;;;;29.75;18.00;;;18.40;99.90;;;;;;5011400;28;20034;-75
2021/09/25 06:03:28;;;;;;;28.80;18.05;;;18.40;99.90;;;;;;5012305;28;20029;-75
2021/09/25 06:05:53;;;;;;;31.88;19.10;;;18.40;99.90;;;;;;5012431;28;20030;-75
2021/09/25 06:08:19;;;;;;;29.90;17.42;;;18.40;99.90;;;;;;5012536;28;20429;-75
2021/09/25 06:10:45;;;;;;;27.35;17.90;;;18.40;99.90;;;;;;5012419;28;20101;-75
2021/09/25 06:13:10;;;;;;;26.38;17.85;;;18.50;99.90;;;;;;5011148;28;20026;-75
2021/09/25 06:15:37;;;;;;;26.33;18.35;;;18.50;99.90;;;;;;5011158;28;20030;-75
2021/09/25 06:18:03;;;;;;;27.13;17.52;;;18.50;99.90;;;;;;5012300;28;20480;-75
2021/09/25 06:20:29;;;;;;;25.85;17.98;;;18.50;99.90;;;;;;5011338;28;20056;-75
2021/09/25 06:22:56;;;;;;;29.92;17.98;;;18.50;99.90;;;;;;5013047;28;20041;-75
2021/09/25 06:25:22;;;;;;;26.67;16.75;;;18.60;99.90;;;;;;5013227;28;20105;-75
2021/09/25 06:27:47;;;;;;;30.85;17.13;;;18.50;99.90;;;;;;5013341;28;20101;-75
2021/09/25 06:30:13;;;;;;;29.10;18.38;;;18.60;99.90;;;;;;5013079;28;20026;-75
2021/09/25 06:32:39;;;;;;;29.42;17.60;;;18.60;99.90;;;;;;5013070;28;20188;-75
2021/09/25 06:35:07;;;;;;;28.40;18.45;;;18.70;99.90;;;;;;5012123;28;20695;-75
2021/09/25 06:37:32;;;;;;;25.90;17.50;;;18.70;99.90;;;;;;5011956;28;20109;-75
2021/09/25 06:39:58;;;;;;;34.63;18.63;;;18.70;99.90;;;;;;5009857;28;20458;-75
2021/09/25 06:42:24;;;;;;;26.10;18.10;;;18.70;99.90;;;;;;5008763;28;20026;-74
2021/09/25 06:44:50;;;;;;;24.00;16.42;;;18.70;99.90;;;;;;5010367;28;20080;-74
2021/09/25 06:47:16;;;;;;;21.80;16.42;;;18.70;99.90;;;;;;5010505;28;20109;-75
2021/09/25 06:49:42;;;;;;;29.98;17.88;;;18.70;99.90;;;;;;5010905;28;20021;-75
2021/09/25 06:52:10;;;;;;;31.67;17.25;;;18.80;99.90;;;;;;5011517;28;20026;-75
2021/09/25 06:54:37;;;;;;;28.08;18.50;;;18.80;99.90;;;;;;5011063;28;20033;-75
2021/09/25 06:57:04;;;;;;;23.63;17.05;;;18.80;99.90;;;;;;5010269;28;20026;-75
2021/09/25 06:59:29;;;;;;;26.60;17.50;;;18.80;99.90;;;;;;5010667;28;20181;-75
2021/09/25 07:01:55;;;;;;;28.00;17.05;;;18.80;99.90;;;;;;5010949;28;20144;-74
2021/09/25 07:04:21;;;;;;;26.95;16.77;;;18.90;99.90;;;;;;5011276;28;20172;-75
2021/09/25 07:06:47;;;;;;;26.30;16.17;;;18.90;99.90;;;;;;5011620;28;20037;-74
2021/09/25 07:09:13;;;;;;;25.67;16.63;;;18.90;99.90;;;;;;5011461;28;20460;-75
2021/09/25 07:11:38;;;;;;;23.80;15.90;;;19.00;99.90;;;;;;5007310;28;20468;-75
2021/09/25 07:14:04;;;;;;;30.60;17.20;;;19.00;99.90;;;;;;5007033;28;20021;-75
2021/09/25 07:16:30;;;;;;;27.77;16.98;;;19.10;99.90;;;;;;5007444;28;20057;-75
2021/09/25 07:18:56;;;;;;;25.38;16.50;;;19.10;99.90;;;;;;5007377;28;20076;-75
2021/09/25 07:21:22;;;;;;;28.85;16.92;;;19.10;99.90;;;;;;5007436;28;20429;-75
2021/09/25 07:23:48;;;;;;;25.75;16.20;;;19.10;99.90;;;;;;5008944;28;20045;-75
2021/09/25 07:26:14;;;;;;;20.33;14.55;;;19.10;99.90;;;;;;5005851;28;20026;-74
2021/09/25 07:28:40;;;;;;;21.13;14.02;;;19.20;99.90;;;;;;5008124;28;20146;-75
2021/09/25 07:31:09;;;;;;;22.83;15.80;;;19.20;99.90;;;;;;5008186;28;20026;-75
2021/09/25 07:33:35;;;;;;;22.10;15.70;;;19.20;99.90;;;;;;5004596;28;20026;-75
2021/09/25 07:36:01;;;;;;;21.60;14.77;;;19.30;99.90;;;;;;5006093;28;20042;-75
2021/09/25 07:38:27;;;;;;;23.65;14.38;;;19.30;99.90;;;;;;5004403;28;20718;-75
2021/09/25 07:40:54;;;;;;;22.50;15.25;;;19.30;99.90;;;;;;5038754;28;20037;-76
2021/09/25 07:43:21;;;;;;;25.45;14.50;;;19.30;99.90;;;;;;5006835;28;20167;-77
2021/09/25 07:45:47;;;;;;;20.45;14.55;;;19.40;99.90;;;;;;5005596;28;20033;-76
2021/09/25 07:48:13;;;;;;;21.55;13.57;;;19.40;99.90;;;;;;5006859;28;20018;-76
2021/09/25 07:50:38;;;;;;;19.45;14.10;;;19.50;99.90;;;;;;5013139;28;20033;-76
2021/09/25 07:53:04;;;;;;;22.40;14.35;;;19.60;99.90;;;;;;5005237;28;20046;-75
2021/09/25 07:55:30;;;;;;;21.00;12.88;;;19.60;99.90;;;;;;5003787;28;20099;-75
2021/09/25 07:57:56;;;;;;;21.52;14.07;;;19.70;99.90;;;;;;5005100;28;20036;-75
2021/09/25 08:00:22;;;;;;;17.85;12.60;;;19.70;99.90;;;;;;5037722;28;20042;-75
2021/09/25 08:02:48;;;;;;;25.30;13.80;;;19.70;99.90;;;;;;5003999;28;20273;-75
2021/09/25 08:05:14;;;;;;;22.35;13.32;;;19.80;99.90;;;;;;5002528;28;20032;-75
2021/09/25 08:07:41;;;;;;;20.42;13.23;;;19.80;99.90;;;;;;5006594;28;20026;-75
2021/09/25 08:10:08;;;;;;;15.73;11.68;;;19.80;99.90;;;;;;5013501;28;20014;-75
2021/09/25 08:12:34;;;;;;;18.13;11.18;;;19.80;99.90;;;;;;5008417;28;20022;-75
2021/09/25 08:15:00;;;;;;;17.40;10.73;;;19.90;99.90;;;;;;5010207;28;20542;-75
2021/09/25 08:17:32;;;;;;;12.23;9.98;;;19.90;99.90;;;;;;5009379;28;20021;-74
2021/09/25 08:19:58;;;;;;;;;;;19.90;99.90;;;;;;5010113;28;20550;-75
2021/09/25 08:22:24;;;;;;;12.63;9.43;;;19.90;99.90;;;;;;5007995;28;19944;-75
2021/09/25 08:24:50;;;;;;;15.45;10.20;;;20.00;99.90;;;;;;4999126;28;20034;-74
2021/09/25 08:27:16;;;;;;;14.80;9.68;;;20.00;99.90;;;;;;5001844;28;20025;-74
2021/09/25 08:29:41;;;;;;;13.80;9.20;;;20.00;99.90;;;;;;5021327;28;20014;-75
2021/09/25 08:32:07;;;;;;;15.82;10.60;;;20.10;99.90;;;;;;5019459;28;20028;-75
2021/09/25 08:34:33;;;;;;;11.90;9.43;;;20.10;99.90;;;;;;5017832;28;20018;-74
2021/09/25 08:37:00;;;;;;;14.25;10.10;;;20.10;99.90;;;;;;5018423;28;20483;-74
2021/09/25 08:39:26;;;;;;;14.63;10.18;;;20.10;99.90;;;;;;5007142;28;20030;-75
2021/09/25 08:41:53;;;;;;;9.98;8.13;;;20.10;99.90;;;;;;5011416;28;20037;-75
2021/09/25 08:44:20;;;;;;;9.73;7.85;;;20.20;99.90;;;;;;5009339;28;20038;-75
2021/09/25 08:46:47;;;;;;;11.25;8.13;;;20.20;99.90;;;;;;5010020;28;20052;-75
2021/09/25 08:49:13;;;;;;;10.98;8.00;;;20.20;99.90;;;;;;5010287;28;20026;-75
2021/09/25 08:51:39;;;;;;;9.35;8.10;;;20.20;99.90;;;;;;5012847;28;20071;-75
2021/09/25 08:54:05;;;;;;;8.70;7.85;;;20.30;99.90;;;;;;5015658;28;20099;-75
2021/09/25 08:56:31;;;;;;;13.10;8.18;;;20.30;99.90;;;;;;5016725;28;20053;-75
2021/09/25 08:58:58;;;;;;;12.30;8.80;;;20.30;99.90;;;;;;5042208;28;20497;-75
2021/09/25 09:01:28;;;;;;;13.85;9.10;;;20.50;99.90;;;;;;5012444;28;20029;-75
2021/09/25 09:03:55;;;;;;;10.95;8.27;;;20.50;99.90;;;;;;5046028;28;20495;-75
2021/09/25 09:06:29;;;;;;;13.20;7.90;;;20.50;99.90;;;;;;5020687;28;20026;-75
2021/09/25 09:08:59;;;;;;;11.43;8.65;;;20.50;99.90;;;;;;5015896;28;20029;-75
2021/09/25 09:11:25;;;;;;;8.30;6.93;;;20.60;99.90;;;;;;5013069;28;20361;-74
2021/09/25 09:13:55;;;;;;;8.27;7.18;;;20.70;99.90;;;;;;5023299;28;20041;-75
2021/09/25 09:16:21;;;;;;;11.27;8.25;;;20.70;99.90;;;;;;5010249;28;20549;-74
2021/09/25 09:18:49;;;;;;;9.85;6.82;;;20.70;99.90;;;;;;5012345;28;20511;-74
2021/09/25 09:21:22;;;;;;;11.80;7.20;;;20.70;99.90;;;;;;5019406;28;20024;-74
2021/09/25 09:23:54;;;;;;;10.88;7.55;;;20.80;99.90;;;;;;5012600;28;20554;-74
2021/09/25 09:26:26;;;;;;;9.38;8.00;;;20.90;99.90;;;;;;5011594;28;20018;-76
2021/09/25 09:28:54;;;;;;;15.85;8.93;;;20.90;99.90;;;;;;5011453;28;20030;-76
2021/09/25 09:31:21;;;;;;;11.95;8.13;;;20.80;99.90;;;;;;5041432;28;20025;-76
2021/09/25 09:33:55;;;;;;;13.68;8.50;;;20.80;99.90;;;;;;5015274;28;20034;-76
2021/09/25 09:36:28;;;;;;;9.52;7.80;;;20.90;99.90;;;;;;5007003;28;20026;-76
2021/09/25 09:39:05;;;;;;;7.38;6.45;;;21.00;99.90;;;;;;5009412;28;20084;-76
2021/09/25 09:41:38;;;;;;;10.60;6.90;;;21.10;99.90;;;;;;5009299;28;20022;-76
2021/09/25 09:44:11;;;;;;;8.55;6.57;;;21.20;99.90;;;;;;5008608;28;20026;-76
2021/09/25 09:46:41;;;;;;;13.63;7.28;;;21.20;99.90;;;;;;5009546;28;20673;-76
2021/09/25 09:49:14;;;;;;;11.75;7.50;;;21.20;99.90;;;;;;5008421;28;20026;-76
2021/09/25 09:51:44;;;;;;;14.13;7.60;;;21.20;99.90;;;;;;5008627;28;20018;-76
2021/09/25 09:54:12;;;;;;;11.25;8.07;;;21.20;99.90;;;;;;5037320;28;20050;-76
2021/09/25 09:56:42;;;;;;;10.77;7.38;;;21.20;99.90;;;;;;5007203;28;20034;-76
2021/09/25 09:59:08;;;;;;;7.78;6.97;;;21.20;99.90;;;;;;5007722;28;20022;-76
2021/09/25 10:01:35;;;;;;;9.25;6.97;;;21.30;99.90;;;;;;5009290;28;20057;-76
2021/09/25 10:04:01;;;;;;;9.52;6.80;;;21.40;99.90;;;;;;5008714;28;20392;-76
2021/09/25 10:06:28;;;;;;;10.55;7.60;;;21.50;99.90;;;;;;5003802;28;20022;-76
2021/09/25 10:08:54;;;;;;;13.40;8.30;;;21.50;99.90;;;;;;5008605;28;20015;-76
2021/09/25 10:11:22;;;;;;;20.95;8.95;;;21.50;99.90;;;;;;5008479;28;20018;-76
2021/09/25 10:13:48;;;;;;;10.10;7.10;;;21.50;99.90;;;;;;5007026;28;20061;-76
2021/09/25 10:16:14;;;;;;;12.68;8.65;;;21.60;99.90;;;;;;5012535;28;20373;-76
2021/09/25 10:18:42;;;;;;;10.10;9.02;;;21.70;99.90;;;;;;5013104;28;20028;-76
2021/09/25 10:21:11;;;;;;;13.77;9.50;;;21.60;99.90;;;;;;5045065;28;20368;-76
2021/09/25 10:23:41;;;;;;;14.88;9.05;;;21.70;99.90;;;;;;5012667;28;20022;-77
2021/09/25 10:26:08;;;;;;;15.20;9.85;;;21.70;99.90;;;;;;5011328;28;20065;-76
2021/09/25 10:28:35;;;;;;;11.85;8.68;;;21.70;99.90;;;;;;5012149;28;20037;-76
2021/09/25 10:31:01;;;;;;;13.77;8.88;;;21.70;99.90;;;;;;5012075;28;20109;-73
2021/09/25 10:33:26;;;;;;;16.60;10.88;;;21.70;99.90;;;;;;5009801;28;20153;-73
2021/09/25 10:35:53;;;;;;;13.18;8.57;;;21.80;99.90;;;;;;5011444;28;20034;-73
2021/09/25 10:38:40;;;;;;;14.68;11.10;;;21.80;99.90;;;;;;5011645;28;20049;-73
2021/09/25 10:41:17;;;;;;;19.65;12.50;;;21.90;99.90;;;;;;5009017;28;20511;-74
2021/09/25 10:43:45;;;;;;;17.83;11.02;;;21.80;99.90;;;;;;5011237;28;20033;-76
2021/09/25 10:46:12;;;;;;;21.48;12.07;;;21.80;99.90;;;;;;5011393;28;20018;-76
2021/09/25 10:48:58;;;;;;;16.33;10.50;;;21.90;99.90;;;;;;5011750;28;20034;-76
2021/09/25 10:51:29;;;;;;;13.50;9.93;;;21.90;99.90;;;;;;5011114;28;20038;-76
2021/09/25 10:54:02;;;;;;;10.73;8.88;;;21.90;99.90;;;;;;5011464;28;20038;-74
2021/09/25 10:56:27;;;;;;;15.35;8.90;;;22.00;99.90;;;;;;5011019;28;20519;-74
2021/09/25 10:58:53;;;;;;;15.25;10.13;;;22.10;99.90;;;;;;5011424;28;20053;-74
2021/09/25 11:01:20;;;;;;;15.13;10.48;;;22.10;99.90;;;;;;5011254;28;20109;-74
2021/09/25 11:03:52;;;;;;;12.95;10.32;;;22.20;99.90;;;;;;5010610;28;20357;-74
2021/09/25 11:06:31;;;;;;;14.38;10.45;;;22.20;99.90;;;;;;5011402;28;20413;-74
2021/09/25 11:09:18;;;;;;;15.20;9.23;;;22.40;99.90;;;;;;5010441;28;20476;-74
2021/09/25 11:11:49;;;;;;;17.80;11.65;;;22.50;99.90;;;;;;5011050;28;20060;-74
2021/09/25 11:14:16;;;;;;;13.85;10.32;;;22.50;99.90;;;;;;5011296;28;20026;-74
2021/09/25 11:16:53;;;;;;;17.60;10.15;;;22.50;99.90;;;;;;5011295;28;20026;-74
2021/09/25 11:19:22;;;;;;;22.90;11.40;;;22.40;99.90;;;;;;5011548;28;20026;-74
2021/09/25 11:21:50;;;;;;;24.58;9.93;;;22.40;99.90;;;;;;5010773;28;20088;-74
2021/09/25 11:24:19;;;;;;;16.88;11.30;;;22.40;99.90;;;;;;5010914;28;20472;-74
2021/09/25 11:26:45;;;;;;;17.42;12.23;;;22.40;99.90;;;;;;5011190;28;20030;-74
2021/09/25 11:29:11;;;;;;;16.25;11.20;;;22.50;99.90;;;;;;5011050;28;20026;-74
2021/09/25 11:31:38;;;;;;;19.65;11.75;;;22.60;99.90;;;;;;5011161;28;20030;-74
2021/09/25 11:34:19;;;;;;;18.80;12.45;;;22.70;99.90;;;;;;5011533;28;20037;-74
2021/09/25 11:36:50;;;;;;;16.20;11.57;;;22.90;99.90;;;;;;5042648;28;20501;-74
2021/09/25 11:39:24;;;;;;;18.35;11.73;;;22.90;99.90;;;;;;5010380;28;20030;-74
2021/09/25 11:42:22;;;;;;;20.45;12.73;;;23.00;99.90;;;;;;5011109;28;20044;-74
2021/09/25 11:44:47;;;;;;;17.65;13.07;;;23.00;99.90;;;;;;5008644;28;20113;-74
2021/09/25 11:47:40;;;;;;;21.75;12.30;;;22.90;99.70;;;;;;5013285;28;20133;-74
2021/09/25 11:50:16;;;;;;;23.02;14.98;;;22.90;99.90;;;;;;5009744;28;20021;-74
2021/09/25 11:52:44;;;;;;;23.85;14.75;;;22.90;99.30;;;;;;5012280;28;20046;-74
2021/09/25 11:55:11;;;;;;;22.90;13.55;;;22.80;99.50;;;;;;5013083;28;20018;-74
2021/09/25 11:57:37;;;;;;;21.70;12.77;;;22.90;99.90;;;;;;5012782;28;20026;-74
2021/09/25 12:00:17;;;;;;;24.88;14.98;;;22.90;99.90;;;;;;5013195;28;20030;-74
2021/09/25 12:02:45;;;;;;;22.17;13.70;;;23.10;99.90;;;;;;5013213;28;20030;-74
2021/09/25 12:05:47;;;;;;;27.17;15.38;;;23.20;99.90;;;;;;5013704;28;20021;-74
2021/09/25 12:08:23;;;;;;;20.73;13.65;;;23.30;98.90;;;;;;5012533;28;20484;-74
2021/09/25 12:10:52;;;;;;;18.17;10.98;;;23.40;99.80;;;;;;5013427;28;20029;-74
2021/09/25 12:13:21;;;;;;;21.95;14.20;;;23.40;99.90;;;;;;5012756;28;20361;-74
2021/09/25 12:15:49;;;;;;;21.33;12.80;;;23.30;99.80;;;;;;5014226;28;20030;-74
2021/09/25 12:18:24;;;;;;;19.73;12.93;;;23.30;99.70;;;;;;5013767;28;20040;-74
2021/09/25 12:20:54;;;;;;;22.30;13.77;;;23.30;99.60;;;;;;5014084;28;20100;-74
2021/09/25 12:23:31;;;;;;;20.95;14.13;;;23.50;99.60;;;;;;5013930;28;20263;-74
2021/09/25 12:25:57;;;;;;;28.55;14.80;;;23.50;99.10;;;;;;5014187;28;20025;-74
2021/09/25 12:28:33;;;;;;;29.02;16.85;;;23.60;99.10;;;;;;5014311;28;20133;-74
2021/09/25 12:31:34;;;;;;;23.30;14.13;;;23.50;97.90;;;;;;5014100;28;20053;-74